createdAt,value
2017-05-02T00:00:10.821Z,0
2017-05-02T00:01:10.825Z,0
2017-05-02T00:02:10.853Z,0
2017-05-02T00:03:10.786Z,0
2017-05-02T00:04:10.822Z,0
2017-05-02T00:05:10.842Z,0
2017-05-02T00:06:10.866Z,0
2017-05-02T00:07:10.775Z,0
2017-05-02T00:08:10.831Z,0
2017-05-02T00:09:10.809Z,0
2017-05-02T00:10:10.886Z,0
2017-05-02T00:11:10.854Z,0
2017-05-02T00:12:10.822Z,0
2017-05-02T00:13:10.794Z,0
2017-05-02T00:14:10.867Z,0
2017-05-02T00:15:10.848Z,0
2017-05-02T00:16:10.822Z,0
2017-05-02T00:17:10.809Z,0
2017-05-02T00:18:10.833Z,0
2017-05-02T00:19:10.886Z,0
2017-05-02T00:20:10.836Z,0
2017-05-02T00:21:10.877Z,0
2017-05-02T00:22:10.878Z,0
2017-05-02T00:23:10.819Z,0
2017-05-02T00:24:10.875Z,0
2017-05-02T00:25:10.836Z,0
2017-05-02T00:26:10.873Z,0
2017-05-02T00:27:10.813Z,0
2017-05-02T00:28:10.777Z,0
2017-05-02T00:29:10.815Z,0
2017-05-02T00:30:10.807Z,0
2017-05-02T00:31:10.778Z,0
2017-05-02T00:32:10.778Z,0
2017-05-02T00:33:10.826Z,0
2017-05-02T00:34:10.867Z,0
2017-05-02T00:35:10.777Z,0
2017-05-02T00:36:10.812Z,0
2017-05-02T00:37:10.861Z,0
2017-05-02T00:38:10.848Z,0
2017-05-02T00:39:10.895Z,0
2017-05-02T00:40:10.838Z,0
2017-05-02T00:41:10.923Z,0
2017-05-02T00:42:10.860Z,0
2017-05-02T00:43:10.910Z,0
2017-05-02T00:44:10.852Z,0
2017-05-02T00:45:10.894Z,0
2017-05-02T00:46:10.835Z,0
2017-05-02T00:47:10.866Z,0
2017-05-02T00:48:10.811Z,0
2017-05-02T00:49:10.879Z,0
2017-05-02T00:50:10.821Z,0
2017-05-02T00:51:10.888Z,0
2017-05-02T00:52:10.837Z,0
2017-05-02T00:53:10.890Z,0
2017-05-02T00:54:10.831Z,0
2017-05-02T00:55:10.900Z,0
2017-05-02T00:56:10.847Z,0
2017-05-02T00:57:10.867Z,0
2017-05-02T00:58:10.909Z,0
2017-05-02T00:59:10.923Z,0
2017-05-02T01:00:10.928Z,0
2017-05-02T01:01:10.840Z,0
2017-05-02T01:02:10.830Z,0
2017-05-02T01:03:10.862Z,0
2017-05-02T01:04:10.886Z,0
2017-05-02T01:05:10.911Z,0
2017-05-02T01:06:10.900Z,0
2017-05-02T01:07:10.927Z,0
2017-05-02T01:08:10.867Z,0
2017-05-02T01:09:10.892Z,0
2017-05-02T01:10:10.916Z,0
2017-05-02T01:11:10.837Z,0
2017-05-02T01:12:10.847Z,0
2017-05-02T01:13:10.837Z,0
2017-05-02T01:14:10.856Z,0
2017-05-02T01:15:10.900Z,0
2017-05-02T01:16:10.922Z,0
2017-05-02T01:17:10.926Z,0
2017-05-02T01:18:10.886Z,0
2017-05-02T01:19:10.865Z,0
2017-05-02T01:20:10.861Z,0
2017-05-02T01:21:10.860Z,0
2017-05-02T01:22:10.845Z,0
2017-05-02T01:23:10.848Z,0
2017-05-02T01:24:10.869Z,0
2017-05-02T01:25:10.859Z,0
2017-05-02T01:26:10.877Z,0
2017-05-02T01:27:10.907Z,0
2017-05-02T01:28:10.921Z,0
2017-05-02T01:29:10.888Z,0
2017-05-02T01:30:10.870Z,0
2017-05-02T01:31:10.844Z,0
2017-05-02T01:32:10.834Z,0
2017-05-02T01:33:10.896Z,0
2017-05-02T01:34:10.863Z,0
2017-05-02T01:35:10.861Z,0
2017-05-02T01:36:10.838Z,0
2017-05-02T01:37:10.928Z,0
2017-05-02T01:38:10.901Z,0
2017-05-02T01:39:10.951Z,0
2017-05-02T01:40:10.873Z,0
2017-05-02T01:41:10.895Z,0
2017-05-02T01:42:10.914Z,0
2017-05-02T01:43:10.940Z,0
2017-05-02T01:44:10.932Z,0
2017-05-02T01:45:10.866Z,0
2017-05-02T01:46:10.925Z,0
2017-05-02T01:47:10.849Z,0
2017-05-02T01:48:10.879Z,0
2017-05-02T01:49:10.925Z,0
2017-05-02T01:50:10.864Z,0
2017-05-02T01:51:10.904Z,0
2017-05-02T01:52:10.964Z,0
2017-05-02T01:53:10.891Z,0
2017-05-02T01:54:10.936Z,0
2017-05-02T01:55:10.948Z,0
2017-05-02T01:56:10.855Z,0
2017-05-02T01:57:10.878Z,0
2017-05-02T01:58:10.907Z,0
2017-05-02T01:59:10.889Z,0
2017-05-02T02:00:10.938Z,0
2017-05-02T02:01:10.900Z,0
2017-05-02T02:02:10.886Z,0
2017-05-02T02:03:10.868Z,0
2017-05-02T02:04:10.964Z,0
2017-05-02T02:05:10.956Z,0
2017-05-02T02:06:10.962Z,0
2017-05-02T02:07:10.972Z,0
2017-05-02T02:08:10.900Z,0
2017-05-02T02:09:10.866Z,0
2017-05-02T02:10:10.927Z,0
2017-05-02T02:11:10.903Z,0
2017-05-02T02:12:10.885Z,0
2017-05-02T02:13:10.867Z,0
2017-05-02T02:14:10.966Z,0
2017-05-02T02:15:10.924Z,0
2017-05-02T02:16:10.904Z,0
2017-05-02T02:17:10.889Z,0
2017-05-02T02:18:10.890Z,0
2017-05-02T02:19:10.881Z,0
2017-05-02T02:20:10.856Z,0
2017-05-02T02:21:10.863Z,0
2017-05-02T02:22:10.854Z,0
2017-05-02T02:23:10.865Z,0
2017-05-02T02:24:10.901Z,0
2017-05-02T02:25:10.916Z,0
2017-05-02T02:26:10.928Z,0
2017-05-02T02:27:10.829Z,0
2017-05-02T02:28:10.891Z,0
2017-05-02T02:29:10.924Z,0
2017-05-02T02:30:10.870Z,0
2017-05-02T02:31:10.909Z,0
2017-05-02T02:32:10.940Z,0
2017-05-02T02:33:10.966Z,0
2017-05-02T02:34:10.972Z,0
2017-05-02T02:35:10.894Z,0
2017-05-02T02:36:10.915Z,0
2017-05-02T02:37:10.945Z,0
2017-05-02T02:38:10.893Z,0
2017-05-02T02:39:10.986Z,0
2017-05-02T02:40:10.928Z,0
2017-05-02T02:41:10.889Z,0
2017-05-02T02:42:10.974Z,0
2017-05-02T02:43:10.965Z,0
2017-05-02T02:44:10.936Z,0
2017-05-02T02:45:10.892Z,0
2017-05-02T02:46:10.892Z,0
2017-05-02T02:47:10.988Z,0
2017-05-02T02:48:10.946Z,0
2017-05-02T02:49:10.912Z,0
2017-05-02T02:50:10.999Z,0
2017-05-02T02:51:10.960Z,0
2017-05-02T02:52:10.922Z,0
2017-05-02T02:53:10.906Z,0
2017-05-02T02:54:10.977Z,0
2017-05-02T02:55:10.942Z,0
2017-05-02T02:56:10.925Z,0
2017-05-02T02:57:10.996Z,0
2017-05-02T02:58:10.942Z,0
2017-05-02T02:59:10.902Z,0
2017-05-02T03:00:10.936Z,0
2017-05-02T03:01:10.989Z,0
2017-05-02T03:02:10.897Z,0
2017-05-02T03:03:10.907Z,0
2017-05-02T03:04:10.937Z,0
2017-05-02T03:05:10.956Z,0
2017-05-02T03:06:10.980Z,0
2017-05-02T03:07:10.882Z,0
2017-05-02T03:08:10.962Z,0
2017-05-02T03:09:10.921Z,0
2017-05-02T03:10:10.896Z,0
2017-05-02T03:11:10.902Z,0
2017-05-02T03:12:10.902Z,0
2017-05-02T03:13:10.990Z,0
2017-05-02T03:14:10.928Z,0
2017-05-02T03:15:10.999Z,0
2017-05-02T03:16:10.889Z,0
2017-05-02T03:17:10.892Z,0
2017-05-02T03:18:10.982Z,0
2017-05-02T03:19:10.994Z,0
2017-05-02T03:20:10.984Z,0
2017-05-02T03:21:10.995Z,4
2017-05-02T03:22:10.923Z,4
2017-05-02T03:23:10.927Z,4
2017-05-02T03:24:10.923Z,4
2017-05-02T03:25:10.913Z,0
2017-05-02T03:26:10.993Z,4
2017-05-02T03:27:11.001Z,4
2017-05-02T03:28:10.912Z,4
2017-05-02T03:29:10.988Z,8
2017-05-02T03:30:10.951Z,4
2017-05-02T03:31:10.905Z,8
2017-05-02T03:32:10.945Z,8
2017-05-02T03:33:10.933Z,12
2017-05-02T03:34:11.008Z,8
2017-05-02T03:35:10.956Z,16
2017-05-02T03:36:10.922Z,16
2017-05-02T03:37:10.999Z,24
2017-05-02T03:38:10.974Z,24
2017-05-02T03:39:10.902Z,32
2017-05-02T03:40:10.936Z,36
2017-05-02T03:41:10.972Z,36
2017-05-02T03:42:11.009Z,48
2017-05-02T03:43:10.929Z,52
2017-05-02T03:44:10.938Z,64
2017-05-02T03:45:10.937Z,72
2017-05-02T03:46:10.927Z,80
2017-05-02T03:47:10.924Z,88
2017-05-02T03:48:10.933Z,100
2017-05-02T03:49:10.945Z,112
2017-05-02T03:50:10.974Z,124
2017-05-02T03:51:10.985Z,136
2017-05-02T03:52:11.008Z,144
2017-05-02T03:53:10.942Z,160
2017-05-02T03:54:10.980Z,172
2017-05-02T03:55:11.012Z,192
2017-05-02T03:56:10.918Z,204
2017-05-02T03:57:10.939Z,224
2017-05-02T03:58:10.970Z,248
2017-05-02T03:59:10.972Z,276
2017-05-02T04:00:10.960Z,304
2017-05-02T04:01:10.953Z,340
2017-05-02T04:02:10.964Z,376
2017-05-02T04:03:10.982Z,412
2017-05-02T04:04:11.017Z,456
2017-05-02T04:05:11.010Z,500
2017-05-02T04:06:10.994Z,548
2017-05-02T04:07:10.986Z,600
2017-05-02T04:08:10.985Z,648
2017-05-02T04:09:11.002Z,708
2017-05-02T04:10:11.016Z,772
2017-05-02T04:11:10.960Z,836
2017-05-02T04:12:11.006Z,908
2017-05-02T04:13:10.947Z,972
2017-05-02T04:14:11.008Z,1036
2017-05-02T04:15:10.952Z,1112
2017-05-02T04:16:11.057Z,1180
2017-05-02T04:17:10.950Z,1240
2017-05-02T04:18:11.026Z,1300
2017-05-02T04:19:11.003Z,1352
2017-05-02T04:20:10.972Z,1392
2017-05-02T04:21:11.019Z,1436
2017-05-02T04:22:10.954Z,1476
2017-05-02T04:23:11.009Z,1524
2017-05-02T04:24:10.924Z,1556
2017-05-02T04:25:10.952Z,1592
2017-05-02T04:26:11.003Z,1636
2017-05-02T04:27:10.942Z,1688
2017-05-02T04:28:11.037Z,1736
2017-05-02T04:29:10.926Z,1772
2017-05-02T04:30:10.970Z,1804
2017-05-02T04:31:10.900Z,1828
2017-05-02T04:32:10.958Z,1844
2017-05-02T04:33:11.009Z,1880
2017-05-02T04:34:10.932Z,1932
2017-05-02T04:35:10.963Z,2004
2017-05-02T04:36:10.920Z,2036
2017-05-02T04:37:10.971Z,2056
2017-05-02T04:38:11.011Z,2100
2017-05-02T04:39:10.951Z,2108
2017-05-02T04:40:10.959Z,2092
2017-05-02T04:41:10.981Z,2100
2017-05-02T04:42:10.896Z,2096
2017-05-02T04:43:10.914Z,2092
2017-05-02T04:44:10.908Z,2096
2017-05-02T04:45:10.938Z,2180
2017-05-02T04:46:10.923Z,2240
2017-05-02T04:47:10.911Z,2328
2017-05-02T04:48:10.978Z,2488
2017-05-02T04:49:11.037Z,2596
2017-05-02T04:50:11.045Z,2692
2017-05-02T04:51:11.010Z,2812
2017-05-02T04:52:10.982Z,3024
2017-05-02T04:53:10.945Z,3224
2017-05-02T04:54:10.956Z,3392
2017-05-02T04:55:10.976Z,3516
2017-05-02T04:56:10.980Z,3644
2017-05-02T04:57:11.010Z,3792
2017-05-02T04:58:11.036Z,3924
2017-05-02T04:59:10.952Z,4048
2017-05-02T05:00:10.945Z,4200
2017-05-02T05:01:10.915Z,4352
2017-05-02T05:02:10.920Z,4452
2017-05-02T05:03:10.996Z,4544
2017-05-02T05:04:10.971Z,4612
2017-05-02T05:05:10.986Z,4644
2017-05-02T05:06:10.988Z,4684
2017-05-02T05:07:10.981Z,4752
2017-05-02T05:08:10.934Z,4888
2017-05-02T05:09:10.990Z,5080
2017-05-02T05:10:11.005Z,5380
2017-05-02T05:11:11.007Z,5860
2017-05-02T05:12:11.017Z,6412
2017-05-02T05:13:11.018Z,6968
2017-05-02T05:14:11.026Z,7352
2017-05-02T05:15:10.953Z,7684
2017-05-02T05:16:10.945Z,7980
2017-05-02T05:17:10.963Z,8228
2017-05-02T05:18:10.965Z,8580
2017-05-02T05:19:10.967Z,9088
2017-05-02T05:20:11.008Z,9628
2017-05-02T05:21:10.951Z,10356
2017-05-02T05:22:11.014Z,11160
2017-05-02T05:23:11.007Z,11792
2017-05-02T05:24:10.950Z,12188
2017-05-02T05:25:10.985Z,12212
2017-05-02T05:35:00.618Z,10804
2017-05-02T05:36:42.691Z,9916
2017-05-02T05:37:42.441Z,9392
2017-05-02T05:38:42.325Z,8792
2017-05-02T05:39:42.424Z,8240
2017-05-02T05:40:42.355Z,8000
2017-05-02T05:41:42.338Z,7796
2017-05-02T05:42:42.416Z,7800
2017-05-02T05:43:42.387Z,7760
2017-05-02T05:44:42.351Z,7668
2017-05-02T05:45:42.402Z,7524
2017-05-02T05:46:42.400Z,7300
2017-05-02T05:47:42.389Z,7112
2017-05-02T05:48:42.371Z,6796
2017-05-02T05:49:42.361Z,6580
2017-05-02T05:50:42.435Z,6464
2017-05-02T05:51:42.425Z,6372
2017-05-02T05:52:42.373Z,6248
2017-05-02T05:53:42.331Z,6144
2017-05-02T05:54:42.353Z,6076
2017-05-02T05:55:42.413Z,6052
2017-05-02T05:56:42.401Z,6144
2017-05-02T05:57:42.437Z,6240
2017-05-02T05:58:42.327Z,6324
2017-05-02T05:59:42.350Z,6388
2017-05-02T06:00:42.310Z,6268
2017-05-02T06:01:42.389Z,6316
2017-05-02T06:02:42.347Z,6328
2017-05-02T06:03:42.338Z,6320
2017-05-02T06:04:42.366Z,6216
2017-05-02T06:05:42.343Z,6084
2017-05-02T06:06:42.348Z,6048
2017-05-02T06:07:42.407Z,6168
2017-05-02T06:08:42.368Z,6332
2017-05-02T06:09:42.398Z,6536
2017-05-02T06:10:42.441Z,6648
2017-05-02T06:11:42.432Z,6628
2017-05-02T06:12:42.460Z,6680
2017-05-02T06:13:42.370Z,6612
2017-05-02T06:14:42.367Z,6648
2017-05-02T06:15:42.404Z,6500
2017-05-02T06:16:42.366Z,6452
2017-05-02T06:17:42.377Z,6432
2017-05-02T06:18:42.386Z,6576
2017-05-02T06:19:42.325Z,6880
2017-05-02T06:20:42.385Z,7184
2017-05-02T06:21:42.392Z,7572
2017-05-02T06:22:42.496Z,7800
2017-05-02T06:23:42.388Z,7964
2017-05-02T06:24:42.392Z,8116
2017-05-02T06:25:42.391Z,8056
2017-05-02T06:26:42.395Z,8004
2017-05-02T06:27:42.397Z,8036
2017-05-02T06:28:42.383Z,7928
2017-05-02T06:29:42.403Z,7792
2017-05-02T06:30:42.388Z,7708
2017-05-02T06:31:42.389Z,7688
2017-05-02T06:32:42.390Z,7260
2017-05-02T06:33:42.389Z,6464
2017-05-02T06:34:42.349Z,5480
2017-05-02T06:35:42.400Z,4924
2017-05-02T06:36:42.401Z,4652
2017-05-02T06:37:42.393Z,4328
2017-05-02T06:38:42.392Z,4276
2017-05-02T06:39:42.384Z,4344
2017-05-02T06:40:42.365Z,4440
2017-05-02T06:41:42.394Z,4460
2017-05-02T06:42:42.415Z,4348
2017-05-02T06:43:42.394Z,4228
2017-05-02T06:44:42.392Z,4168
2017-05-02T06:45:42.500Z,4048
2017-05-02T06:46:42.394Z,3988
2017-05-02T06:47:42.393Z,3856
2017-05-02T06:48:42.384Z,3556
2017-05-02T06:49:42.387Z,3280
2017-05-02T06:50:42.336Z,3264
2017-05-02T06:51:42.390Z,3300
2017-05-02T06:52:42.399Z,3496
2017-05-02T06:53:42.404Z,3684
2017-05-02T06:54:42.394Z,3804
2017-05-02T06:55:42.391Z,3924
2017-05-02T06:56:42.324Z,4060
2017-05-02T06:57:42.384Z,4176
2017-05-02T06:58:42.398Z,4348
2017-05-02T06:59:42.401Z,4532
2017-05-02T07:00:42.462Z,4648
2017-05-02T07:01:42.404Z,4660
2017-05-02T07:02:42.391Z,4644
2017-05-02T07:03:42.402Z,4584
2017-05-02T07:04:42.405Z,4476
2017-05-02T07:05:42.406Z,4460
2017-05-02T07:06:42.407Z,4548
2017-05-02T07:07:42.406Z,4684
2017-05-02T07:08:42.411Z,4936
2017-05-02T07:09:42.404Z,5128
2017-05-02T07:10:42.408Z,5240
2017-05-02T07:11:42.373Z,5232
2017-05-02T07:12:42.514Z,5256
2017-05-02T07:13:42.410Z,5392
2017-05-02T07:14:42.411Z,5684
2017-05-02T07:15:42.412Z,6004
2017-05-02T07:16:42.422Z,6288
2017-05-02T07:17:42.431Z,6592
2017-05-02T07:18:42.415Z,7220
2017-05-02T07:19:42.468Z,8100
2017-05-02T07:20:42.465Z,9204
2017-05-02T07:21:42.378Z,10332
2017-05-02T07:22:42.371Z,11744
2017-05-02T07:23:42.403Z,13300
2017-05-02T07:24:42.375Z,14732
2017-05-02T07:25:42.377Z,15608
2017-05-02T07:26:42.380Z,16240
2017-05-02T07:27:42.476Z,16060
2017-05-02T07:28:42.374Z,16148
2017-05-02T07:29:42.394Z,16336
2017-05-02T07:30:42.391Z,16828
2017-05-02T07:31:42.389Z,17880
2017-05-02T07:32:42.390Z,18748
2017-05-02T07:33:42.389Z,19092
2017-05-02T07:34:42.393Z,18820
2017-05-02T07:35:42.393Z,18516
2017-05-02T07:36:42.394Z,18612
2017-05-02T07:37:42.493Z,18820
2017-05-02T07:38:42.392Z,20000
2017-05-02T07:39:42.393Z,21600
2017-05-02T07:40:42.409Z,23264
2017-05-02T07:41:42.417Z,25184
2017-05-02T07:42:42.409Z,27264
2017-05-02T07:43:42.424Z,28672
2017-05-02T07:44:42.523Z,29920
2017-05-02T07:45:42.410Z,31072
2017-05-02T07:46:42.429Z,32032
2017-05-02T07:47:42.413Z,32480
2017-05-02T07:48:42.417Z,32128
2017-05-02T07:49:42.366Z,32096
2017-05-02T07:50:42.325Z,32160
2017-05-02T07:51:42.407Z,31712
2017-05-02T07:52:42.381Z,31008
2017-05-02T07:53:42.328Z,30496
2017-05-02T07:54:42.327Z,29440
2017-05-02T07:55:42.477Z,27680
2017-05-02T07:56:42.325Z,25440
2017-05-02T07:57:42.379Z,23680
2017-05-02T07:58:42.331Z,22208
2017-05-02T07:59:42.403Z,21696
2017-05-02T08:00:42.408Z,21248
2017-05-02T08:01:42.406Z,20608
2017-05-02T08:02:42.508Z,20256
2017-05-02T08:03:42.408Z,20128
2017-05-02T08:04:42.408Z,20992
2017-05-02T08:05:42.407Z,19276
2017-05-02T08:06:42.411Z,18912
2017-05-02T08:07:42.406Z,18444
2017-05-02T08:08:42.409Z,18684
2017-05-02T08:09:42.404Z,19380
2017-05-02T08:10:42.407Z,19968
2017-05-02T08:11:42.406Z,19412
2017-05-02T08:12:42.407Z,19648
2017-05-02T08:13:42.412Z,20864
2017-05-02T08:14:42.509Z,21600
2017-05-02T08:15:42.411Z,22304
2017-05-02T08:16:42.409Z,23264
2017-05-02T08:17:42.412Z,23616
2017-05-02T08:18:42.414Z,24640
2017-05-02T08:19:42.410Z,26432
2017-05-02T08:20:42.412Z,28160
2017-05-02T08:21:42.413Z,30208
2017-05-02T08:22:42.412Z,32288
2017-05-02T08:23:42.413Z,34272
2017-05-02T08:24:42.416Z,34784
2017-05-02T08:25:42.420Z,33600
2017-05-02T08:26:42.415Z,32224
2017-05-02T08:27:42.419Z,31168
2017-05-02T08:28:42.415Z,29792
2017-05-02T08:29:42.415Z,27776
2017-05-02T08:30:42.417Z,26112
2017-05-02T08:31:42.419Z,24448
2017-05-02T08:32:42.419Z,23008
2017-05-02T08:33:42.420Z,22272
2017-05-02T08:34:42.421Z,22368
2017-05-02T08:35:42.420Z,22688
2017-05-02T08:36:42.424Z,22976
2017-05-02T08:37:42.420Z,23072
2017-05-02T08:38:42.422Z,22272
2017-05-02T08:39:42.425Z,20704
2017-05-02T08:40:42.422Z,19680
2017-05-02T08:41:42.427Z,19144
2017-05-02T08:42:42.479Z,18456
2017-05-02T08:43:42.426Z,18164
2017-05-02T08:44:42.426Z,18064
2017-05-02T08:45:42.530Z,18276
2017-05-02T08:46:42.428Z,18452
2017-05-02T08:47:42.427Z,17960
2017-05-02T08:48:42.427Z,17968
2017-05-02T08:49:42.534Z,19144
2017-05-02T08:50:42.430Z,21760
2017-05-02T08:51:42.456Z,23936
2017-05-02T08:52:42.432Z,24992
2017-05-02T08:53:42.432Z,24768
2017-05-02T08:54:42.432Z,23616
2017-05-02T08:55:42.431Z,21952
2017-05-02T08:56:42.433Z,21184
2017-05-02T08:57:42.435Z,20640
2017-05-02T08:58:42.435Z,20384
2017-05-02T08:59:42.467Z,20288
2017-05-02T09:00:42.463Z,20928
2017-05-02T09:01:42.452Z,20672
2017-05-02T09:02:42.464Z,19904
2017-05-02T09:03:42.449Z,19480
2017-05-02T09:04:42.448Z,19768
2017-05-02T09:05:42.448Z,19336
2017-05-02T09:06:42.451Z,19232
2017-05-02T09:07:42.459Z,17972
2017-05-02T09:08:42.456Z,17072
2017-05-02T09:09:42.450Z,15976
2017-05-02T09:10:42.440Z,14920
2017-05-02T09:11:42.445Z,13396
2017-05-02T09:12:42.442Z,12288
2017-05-02T09:13:42.437Z,11244
2017-05-02T09:14:42.441Z,10316
2017-05-02T09:15:42.448Z,9728
2017-05-02T09:16:42.439Z,9508
2017-05-02T09:17:42.442Z,9412
2017-05-02T09:18:42.442Z,9548
2017-05-02T09:19:42.441Z,9356
2017-05-02T09:20:42.448Z,9216
2017-05-02T09:21:42.446Z,9044
2017-05-02T09:22:42.450Z,9068
2017-05-02T09:23:42.448Z,9548
2017-05-02T09:24:42.444Z,10204
2017-05-02T09:25:42.445Z,11948
2017-05-02T09:26:42.492Z,13052
2017-05-02T09:27:42.452Z,13852
2017-05-02T09:28:42.448Z,13644
2017-05-02T09:29:42.454Z,13172
2017-05-02T09:30:42.447Z,13392
2017-05-02T09:31:42.448Z,12884
2017-05-02T09:32:42.451Z,11876
2017-05-02T09:33:42.453Z,11556
2017-05-02T09:34:42.454Z,11376
2017-05-02T09:35:42.449Z,13108
2017-05-02T09:36:42.451Z,14448
2017-05-02T09:37:42.557Z,14588
2017-05-02T09:38:42.450Z,14416
2017-05-02T09:39:42.452Z,13600
2017-05-02T09:40:42.454Z,13268
2017-05-02T09:41:42.456Z,14336
2017-05-02T09:42:42.457Z,15176
2017-05-02T09:43:42.454Z,14836
2017-05-02T09:45:42.453Z,12804
2017-05-02T09:46:42.458Z,13280
2017-05-02T09:47:42.460Z,15844
2017-05-02T09:48:42.454Z,16492
2017-05-02T09:49:42.458Z,17140
2017-05-02T09:50:42.490Z,20032
2017-05-02T09:51:42.485Z,23520
2017-05-02T09:52:42.470Z,24224
2017-05-02T09:53:42.468Z,23616
2017-05-02T09:54:42.473Z,24192
2017-05-02T09:55:42.472Z,25664
2017-05-02T09:56:42.469Z,22400
2017-05-02T09:57:42.478Z,18404
2017-05-02T09:58:42.492Z,15872
2017-05-02T09:59:42.477Z,14908
2017-05-02T10:00:42.461Z,14932
2017-05-02T10:01:42.463Z,17504
2017-05-02T10:02:42.462Z,17864
2017-05-02T10:03:42.464Z,15968
2017-05-02T10:04:42.462Z,13892
2017-05-02T10:05:42.466Z,12492
2017-05-02T10:06:42.516Z,12124
2017-05-02T10:07:42.465Z,12296
2017-05-02T10:08:42.463Z,11340
2017-05-02T10:09:42.467Z,11092
2017-05-02T10:10:42.458Z,13672
2017-05-02T10:11:42.487Z,16184
2017-05-02T10:12:42.467Z,14796
2017-05-02T10:13:42.414Z,15872
2017-05-02T10:14:42.355Z,16016
2017-05-02T10:15:42.465Z,15588
2017-05-02T10:16:42.371Z,15536
2017-05-02T10:17:42.456Z,14884
2017-05-02T10:18:42.492Z,13808
2017-05-02T10:19:42.477Z,16312
2017-05-02T10:20:42.490Z,18176
2017-05-02T10:21:42.490Z,15208
2017-05-02T10:22:42.487Z,11352
2017-05-02T10:23:42.505Z,10088
2017-05-02T10:24:42.493Z,9956
2017-05-02T10:25:42.503Z,11324
2017-05-02T10:26:42.505Z,15780
2017-05-02T10:27:42.492Z,16884
2017-05-02T10:28:42.490Z,13908
2017-05-02T10:29:42.490Z,13764
2017-05-02T10:30:42.400Z,15600
2017-05-02T10:31:42.502Z,15164
2017-05-02T10:32:42.496Z,14452
2017-05-02T10:33:42.399Z,13104
2017-05-02T10:34:42.499Z,12744
2017-05-02T10:35:42.408Z,13604
2017-05-02T10:36:42.402Z,15168
2017-05-02T10:37:42.406Z,16304
2017-05-02T10:38:42.411Z,15664
2017-05-02T10:39:42.410Z,14592
2017-05-02T10:40:42.420Z,12980
2017-05-02T10:41:42.404Z,12256
2017-05-02T10:42:42.502Z,11440
2017-05-02T10:43:42.404Z,11412
2017-05-02T10:44:42.405Z,12324
2017-05-02T10:45:42.420Z,13464
2017-05-02T10:46:42.407Z,14516
2017-05-02T10:47:42.471Z,13972
2017-05-02T10:48:42.571Z,12600
2017-05-02T10:49:42.416Z,11220
2017-05-02T10:50:42.511Z,10672
2017-05-02T10:51:42.520Z,10276
2017-05-02T10:52:42.518Z,11752
2017-05-02T10:53:42.517Z,11952
2017-05-02T10:54:42.519Z,11764
2017-05-02T10:55:42.533Z,11112
2017-05-02T10:56:42.532Z,10960
2017-05-02T10:57:42.498Z,10820
2017-05-02T10:58:42.520Z,11452
2017-05-02T10:59:42.514Z,11884
2017-05-02T11:00:42.484Z,12700
2017-05-02T11:01:42.485Z,13136
2017-05-02T11:02:42.484Z,13780
2017-05-02T11:03:42.492Z,14196
2017-05-02T11:04:42.484Z,14404
2017-05-02T11:05:42.467Z,14760
2017-05-02T11:06:42.485Z,15248
2017-05-02T11:07:42.486Z,15624
2017-05-02T11:08:42.492Z,14308
2017-05-02T11:09:42.486Z,13072
2017-05-02T11:10:42.530Z,13412
2017-05-02T11:11:42.529Z,13452
2017-05-02T11:12:42.523Z,13180
2017-05-02T11:13:42.528Z,13224
2017-05-02T11:14:42.527Z,14520
2017-05-02T11:15:42.516Z,14212
2017-05-02T11:16:42.512Z,13808
2017-05-02T11:17:42.530Z,13760
2017-05-02T11:18:42.543Z,14576
2017-05-02T11:19:42.515Z,15128
2017-05-02T11:20:42.488Z,14516
2017-05-02T11:21:42.426Z,13668
2017-05-02T11:22:42.427Z,12972
2017-05-02T11:23:42.427Z,12712
2017-05-02T11:24:42.427Z,13484
2017-05-02T11:25:42.427Z,14200
2017-05-02T11:26:42.526Z,13564
2017-05-02T11:27:42.430Z,12032
2017-05-02T11:28:42.524Z,11664
2017-05-02T11:29:42.431Z,10768
2017-05-02T11:30:42.493Z,11088
2017-05-02T11:31:42.537Z,10912
2017-05-02T11:32:42.503Z,10640
2017-05-02T11:33:42.523Z,11508
2017-05-02T11:34:42.527Z,12868
2017-05-02T11:35:42.524Z,12168
2017-05-02T11:36:42.525Z,11300
2017-05-02T11:37:42.531Z,11872
2017-05-02T11:38:42.538Z,12480
2017-05-02T11:39:42.528Z,12484
2017-05-02T11:40:42.545Z,13032
2017-05-02T11:41:42.525Z,13432
2017-05-02T11:42:42.543Z,14388
2017-05-02T11:43:42.543Z,13748
2017-05-02T11:44:42.527Z,12752
2017-05-02T11:45:42.572Z,12384
2017-05-02T11:46:42.542Z,13640
2017-05-02T11:47:42.526Z,12952
2017-05-02T11:48:42.531Z,13744
2017-05-02T11:49:42.597Z,13436
2017-05-02T11:50:42.537Z,13688
2017-05-02T11:51:42.550Z,13368
2017-05-02T11:52:42.549Z,13116
2017-05-02T11:53:42.548Z,13272
2017-05-02T11:54:42.554Z,13168
2017-05-02T11:55:42.535Z,13316
2017-05-02T11:56:42.535Z,12636
2017-05-02T11:57:42.537Z,12580
2017-05-02T11:58:42.516Z,13072
2017-05-02T11:59:42.547Z,13784
2017-05-02T12:00:42.552Z,13768
2017-05-02T12:01:42.536Z,13768
2017-05-02T12:02:42.542Z,15964
2017-05-02T12:03:42.556Z,16180
2017-05-02T12:04:42.538Z,14500
2017-05-02T12:05:42.556Z,14068
2017-05-02T12:06:42.539Z,15148
2017-05-02T12:07:42.544Z,16756
2017-05-02T12:08:42.559Z,17488
2017-05-02T12:09:42.543Z,17360
2017-05-02T12:10:42.578Z,16996
2017-05-02T12:11:42.528Z,17544
2017-05-02T12:12:42.530Z,17884
2017-05-02T12:13:42.533Z,18612
2017-05-02T12:14:42.531Z,18276
2017-05-02T12:16:42.535Z,17152
2017-05-02T12:17:42.531Z,17704
2017-05-02T12:18:42.537Z,18016
2017-05-02T12:19:42.531Z,18588
2017-05-02T12:20:42.534Z,18012
2017-05-02T12:21:42.657Z,17016
2017-05-02T12:22:42.563Z,16048
2017-05-02T12:23:42.595Z,14948
2017-05-02T12:24:42.564Z,15060
2017-05-02T12:25:42.551Z,16488
2017-05-02T12:26:42.556Z,18524
2017-05-02T12:27:42.554Z,17192
2017-05-02T12:28:42.551Z,17144
2017-05-02T12:29:42.558Z,18316
2017-05-02T12:30:42.553Z,18776
2017-05-02T12:31:42.543Z,18628
2017-05-02T12:32:42.542Z,19400
2017-05-02T12:33:42.547Z,20136
2017-05-02T12:34:42.541Z,21184
2017-05-02T12:35:42.541Z,20576
2017-05-02T12:36:42.540Z,20800
2017-05-02T12:37:42.547Z,20128
2017-05-02T12:38:42.544Z,21824
2017-05-02T12:39:42.544Z,20104
2017-05-02T12:40:42.546Z,17784
2017-05-02T12:41:42.466Z,15268
2017-05-02T12:42:42.535Z,15400
2017-05-02T12:43:42.554Z,15220
2017-05-02T12:44:42.465Z,13540
2017-05-02T12:45:42.515Z,12220
2017-05-02T12:46:42.476Z,13116
2017-05-02T12:47:42.504Z,14192
2017-05-02T12:48:42.558Z,15344
2017-05-02T12:49:42.482Z,16984
2017-05-02T12:50:42.491Z,17944
2017-05-02T12:51:42.576Z,13628
2017-05-02T12:52:42.582Z,11452
2017-05-02T12:53:42.579Z,11244
2017-05-02T12:55:50.910Z,12948
2017-05-02T12:56:42.569Z,13636
2017-05-02T12:57:42.612Z,12976
2017-05-02T12:58:42.586Z,12428
2017-05-02T12:59:42.578Z,11960
2017-05-02T13:00:42.571Z,11188
2017-05-02T13:01:42.553Z,11016
2017-05-02T13:02:42.553Z,11592
2017-05-02T13:03:42.552Z,11480
2017-05-02T13:04:42.558Z,10164
2017-05-02T13:05:42.555Z,10356
2017-05-02T13:06:42.558Z,10404
2017-05-02T13:07:42.594Z,9736
2017-05-02T13:08:42.558Z,9132
2017-05-02T13:09:42.557Z,8576
2017-05-02T13:10:42.554Z,8380
2017-05-02T13:11:42.574Z,8088
2017-05-02T13:12:42.591Z,8096
2017-05-02T13:13:42.571Z,8204
2017-05-02T13:14:42.574Z,8000
2017-05-02T13:15:42.592Z,7940
2017-05-02T13:16:42.594Z,7624
2017-05-02T13:17:42.599Z,7232
2017-05-02T13:18:42.576Z,6728
2017-05-02T13:19:42.587Z,6608
2017-05-02T13:20:42.578Z,6304
2017-05-02T13:21:42.561Z,5940
2017-05-02T13:22:42.562Z,5652
2017-05-02T13:23:42.563Z,5684
2017-05-02T13:24:42.563Z,5792
2017-05-02T13:25:42.565Z,5768
2017-05-02T13:26:42.565Z,6248
2017-05-02T13:27:42.565Z,6892
2017-05-02T13:28:42.606Z,7644
2017-05-02T13:29:42.565Z,8292
2017-05-02T13:30:42.562Z,8244
2017-05-02T13:31:42.502Z,8920
2017-05-02T13:32:42.497Z,8420
2017-05-02T13:33:42.501Z,8076
2017-05-02T13:34:42.595Z,8236
2017-05-02T13:35:42.494Z,8096
2017-05-02T13:36:42.533Z,8808
2017-05-02T13:37:42.501Z,10356
2017-05-02T13:38:42.543Z,11764
2017-05-02T13:39:42.609Z,13232
2017-05-02T13:40:42.498Z,14948
2017-05-02T13:41:42.588Z,15800
2017-05-02T13:42:42.585Z,15336